sensor_id;sensor_type;location;lat;lon;timestamp;P1;durP1;ratioP1;P2;durP2;ratioP2
67979;SDS011;54760;47.490;19.030;2022-07-06T00:01:39;5.35;;;3.33;;
67979;SDS011;54760;47.490;19.030;2022-07-06T00:06:40;4.55;;;3.33;;
67979;SDS011;54760;47.490;19.030;2022-07-06T00:09:06;4.55;;;3.22;;
67979;SDS011;54760;47.490;19.030;2022-07-06T00:11:32;5.37;;;4.07;;
67979;SDS011;54760;47.490;19.030;2022-07-06T00:13:57;4.50;;;3.67;;
67979;SDS011;54760;47.490;19.030;2022-07-06T00:16:23;4.12;;;3.62;;
67979;SDS011;54760;47.490;19.030;2022-07-06T00:18:49;4.70;;;3.75;;
67979;SDS011;54760;47.490;19.030;2022-07-06T00:21:15;6.00;;;3.72;;
67979;SDS011;54760;47.490;19.030;2022-07-06T00:23:41;5.37;;;3.70;;
67979;SDS011;54760;47.490;19.030;2022-07-06T00:26:07;3.50;;;3.20;;
67979;SDS011;54760;47.490;19.030;2022-07-06T00:28:33;5.45;;;3.47;;
67979;SDS011;54760;47.490;19.030;2022-07-06T00:30:58;6.30;;;3.67;;
67979;SDS011;54760;47.490;19.030;2022-07-06T00:33:24;3.90;;;3.60;;
67979;SDS011;54760;47.490;19.030;2022-07-06T00:35:49;5.12;;;3.70;;
67979;SDS011;54760;47.490;19.030;2022-07-06T00:38:14;4.30;;;3.40;;
67979;SDS011;54760;47.490;19.030;2022-07-06T00:40:40;6.82;;;3.60;;
67979;SDS011;54760;47.490;19.030;2022-07-06T00:43:06;5.40;;;3.50;;
67979;SDS011;54760;47.490;19.030;2022-07-06T00:45:31;7.07;;;3.50;;
67979;SDS011;54760;47.490;19.030;2022-07-06T00:47:57;5.65;;;3.35;;
67979;SDS011;54760;47.490;19.030;2022-07-06T00:50:22;5.28;;;3.47;;
67979;SDS011;54760;47.490;19.030;2022-07-06T00:52:49;5.35;;;3.40;;
67979;SDS011;54760;47.490;19.030;2022-07-06T00:55:16;4.07;;;3.50;;
67979;SDS011;54760;47.490;19.030;2022-07-06T00:57:45;3.97;;;3.53;;
67979;SDS011;54760;47.490;19.030;2022-07-06T01:00:12;3.78;;;3.37;;
67979;SDS011;54760;47.490;19.030;2022-07-06T01:02:39;3.47;;;2.95;;
67979;SDS011;54760;47.490;19.030;2022-07-06T01:05:05;6.32;;;3.80;;
67979;SDS011;54760;47.490;19.030;2022-07-06T01:07:32;5.53;;;3.15;;
67979;SDS011;54760;47.490;19.030;2022-07-06T01:09:59;4.35;;;3.05;;
67979;SDS011;54760;47.490;19.030;2022-07-06T01:12:25;4.40;;;3.33;;
67979;SDS011;54760;47.490;19.030;2022-07-06T01:14:50;4.65;;;3.60;;
67979;SDS011;54760;47.490;19.030;2022-07-06T01:17:16;5.68;;;3.15;;
67979;SDS011;54760;47.490;19.030;2022-07-06T01:19:43;7.03;;;3.50;;
67979;SDS011;54760;47.490;19.030;2022-07-06T01:22:09;3.53;;;3.20;;
67979;SDS011;54760;47.490;19.030;2022-07-06T01:24:35;6.15;;;3.25;;
67979;SDS011;54760;47.490;19.030;2022-07-06T01:27:01;5.20;;;3.28;;
67979;SDS011;54760;47.490;19.030;2022-07-06T01:29:28;3.65;;;2.87;;
67979;SDS011;54760;47.490;19.030;2022-07-06T01:31:54;5.12;;;3.25;;
67979;SDS011;54760;47.490;19.030;2022-07-06T01:34:20;7.07;;;3.55;;
67979;SDS011;54760;47.490;19.030;2022-07-06T01:36:46;5.72;;;3.30;;
67979;SDS011;54760;47.490;19.030;2022-07-06T01:39:12;3.33;;;2.90;;
67979;SDS011;54760;47.490;19.030;2022-07-06T01:41:37;4.70;;;3.35;;
67979;SDS011;54760;47.490;19.030;2022-07-06T01:44:03;4.25;;;3.00;;
67979;SDS011;54760;47.490;19.030;2022-07-06T01:46:29;3.78;;;3.08;;
67979;SDS011;54760;47.490;19.030;2022-07-06T01:48:55;5.72;;;3.45;;
67979;SDS011;54760;47.490;19.030;2022-07-06T01:51:21;4.75;;;3.03;;
67979;SDS011;54760;47.490;19.030;2022-07-06T01:53:47;4.32;;;3.40;;
67979;SDS011;54760;47.490;19.030;2022-07-06T01:56:13;5.97;;;3.72;;
67979;SDS011;54760;47.490;19.030;2022-07-06T01:58:39;5.70;;;3.55;;
67979;SDS011;54760;47.490;19.030;2022-07-06T02:01:09;6.37;;;3.80;;
67979;SDS011;54760;47.490;19.030;2022-07-06T02:03:35;3.40;;;3.10;;
67979;SDS011;54760;47.490;19.030;2022-07-06T02:06:01;7.00;;;3.72;;
67979;SDS011;54760;47.490;19.030;2022-07-06T02:08:27;4.12;;;3.05;;
67979;SDS011;54760;47.490;19.030;2022-07-06T02:10:53;5.65;;;3.37;;
67979;SDS011;54760;47.490;19.030;2022-07-06T02:13:18;4.30;;;2.97;;
67979;SDS011;54760;47.490;19.030;2022-07-06T02:15:43;3.58;;;3.10;;
67979;SDS011;54760;47.490;19.030;2022-07-06T02:18:09;4.68;;;3.62;;
67979;SDS011;54760;47.490;19.030;2022-07-06T02:20:34;5.22;;;3.60;;
67979;SDS011;54760;47.490;19.030;2022-07-06T02:23:00;3.97;;;3.40;;
67979;SDS011;54760;47.490;19.030;2022-07-06T02:25:25;3.90;;;3.45;;
67979;SDS011;54760;47.490;19.030;2022-07-06T02:27:51;4.87;;;3.67;;
67979;SDS011;54760;47.490;19.030;2022-07-06T02:30:16;4.28;;;3.62;;
67979;SDS011;54760;47.490;19.030;2022-07-06T02:32:42;6.35;;;3.90;;
67979;SDS011;54760;47.490;19.030;2022-07-06T02:35:07;4.30;;;3.90;;
67979;SDS011;54760;47.490;19.030;2022-07-06T02:37:33;4.57;;;3.70;;
67979;SDS011;54760;47.490;19.030;2022-07-06T02:39:58;5.18;;;3.83;;
67979;SDS011;54760;47.490;19.030;2022-07-06T02:42:24;6.12;;;3.87;;
67979;SDS011;54760;47.490;19.030;2022-07-06T02:44:49;6.12;;;4.10;;
67979;SDS011;54760;47.490;19.030;2022-07-06T02:47:14;6.10;;;3.97;;
67979;SDS011;54760;47.490;19.030;2022-07-06T02:49:40;4.45;;;4.03;;
67979;SDS011;54760;47.490;19.030;2022-07-06T02:52:05;5.25;;;4.00;;
67979;SDS011;54760;47.490;19.030;2022-07-06T02:54:30;5.82;;;4.07;;
67979;SDS011;54760;47.490;19.030;2022-07-06T02:56:56;4.10;;;3.70;;
67979;SDS011;54760;47.490;19.030;2022-07-06T02:59:21;6.30;;;4.37;;
67979;SDS011;54760;47.490;19.030;2022-07-06T03:01:47;5.32;;;4.20;;
67979;SDS011;54760;47.490;19.030;2022-07-06T03:04:12;5.60;;;4.18;;
67979;SDS011;54760;47.490;19.030;2022-07-06T03:06:38;4.50;;;4.07;;
67979;SDS011;54760;47.490;19.030;2022-07-06T03:09:03;5.50;;;4.28;;
67979;SDS011;54760;47.490;19.030;2022-07-06T03:11:28;8.00;;;4.55;;
67979;SDS011;54760;47.490;19.030;2022-07-06T03:13:54;6.82;;;4.40;;
67979;SDS011;54760;47.490;19.030;2022-07-06T03:16:20;4.97;;;4.20;;
67979;SDS011;54760;47.490;19.030;2022-07-06T03:18:45;6.62;;;4.12;;
67979;SDS011;54760;47.490;19.030;2022-07-06T03:21:11;6.37;;;3.80;;
67979;SDS011;54760;47.490;19.030;2022-07-06T03:23:36;4.90;;;3.62;;
67979;SDS011;54760;47.490;19.030;2022-07-06T03:26:02;7.32;;;4.32;;
67979;SDS011;54760;47.490;19.030;2022-07-06T03:28:27;4.87;;;4.00;;
67979;SDS011;54760;47.490;19.030;2022-07-06T03:30:53;5.37;;;3.53;;
67979;SDS011;54760;47.490;19.030;2022-07-06T03:33:18;4.93;;;3.85;;
67979;SDS011;54760;47.490;19.030;2022-07-06T03:35:43;5.65;;;4.25;;
67979;SDS011;54760;47.490;19.030;2022-07-06T03:38:09;6.78;;;3.83;;
67979;SDS011;54760;47.490;19.030;2022-07-06T03:40:34;8.20;;;3.78;;
67979;SDS011;54760;47.490;19.030;2022-07-06T03:42:59;9.13;;;4.53;;
67979;SDS011;54760;47.490;19.030;2022-07-06T03:45:25;4.72;;;4.22;;
67979;SDS011;54760;47.490;19.030;2022-07-06T03:47:50;6.68;;;4.72;;
67979;SDS011;54760;47.490;19.030;2022-07-06T03:50:16;4.78;;;4.05;;
67979;SDS011;54760;47.490;19.030;2022-07-06T03:52:42;6.35;;;4.05;;
67979;SDS011;54760;47.490;19.030;2022-07-06T03:55:08;6.28;;;4.03;;
67979;SDS011;54760;47.490;19.030;2022-07-06T03:57:35;6.82;;;4.12;;
67979;SDS011;54760;47.490;19.030;2022-07-06T04:00:00;5.05;;;4.15;;
67979;SDS011;54760;47.490;19.030;2022-07-06T04:02:26;7.43;;;4.12;;
67979;SDS011;54760;47.490;19.030;2022-07-06T04:04:52;4.30;;;4.00;;
67979;SDS011;54760;47.490;19.030;2022-07-06T04:07:17;5.65;;;4.07;;
67979;SDS011;54760;47.490;19.030;2022-07-06T04:09:43;6.25;;;3.90;;
67979;SDS011;54760;47.490;19.030;2022-07-06T04:12:08;5.70;;;4.10;;
67979;SDS011;54760;47.490;19.030;2022-07-06T04:14:34;6.22;;;4.10;;
67979;SDS011;54760;47.490;19.030;2022-07-06T04:17:00;5.18;;;4.18;;
67979;SDS011;54760;47.490;19.030;2022-07-06T04:19:45;8.38;;;4.47;;
67979;SDS011;54760;47.490;19.030;2022-07-06T04:22:10;7.07;;;4.18;;
67979;SDS011;54760;47.490;19.030;2022-07-06T04:24:36;6.40;;;4.43;;
67979;SDS011;54760;47.490;19.030;2022-07-06T04:27:01;6.30;;;4.05;;
67979;SDS011;54760;47.490;19.030;2022-07-06T04:29:27;8.05;;;4.28;;
67979;SDS011;54760;47.490;19.030;2022-07-06T04:31:52;5.37;;;3.97;;
67979;SDS011;54760;47.490;19.030;2022-07-06T04:34:18;5.53;;;4.20;;
67979;SDS011;54760;47.490;19.030;2022-07-06T04:36:43;5.45;;;4.03;;
67979;SDS011;54760;47.490;19.030;2022-07-06T04:39:08;6.97;;;4.43;;
67979;SDS011;54760;47.490;19.030;2022-07-06T04:41:34;7.80;;;4.05;;
67979;SDS011;54760;47.490;19.030;2022-07-06T04:43:59;8.32;;;4.30;;
67979;SDS011;54760;47.490;19.030;2022-07-06T04:46:24;8.57;;;5.15;;
67979;SDS011;54760;47.490;19.030;2022-07-06T04:48:50;9.50;;;4.62;;
67979;SDS011;54760;47.490;19.030;2022-07-06T04:51:15;6.80;;;4.25;;
67979;SDS011;54760;47.490;19.030;2022-07-06T04:53:41;6.90;;;4.40;;
67979;SDS011;54760;47.490;19.030;2022-07-06T04:56:07;5.80;;;4.10;;
67979;SDS011;54760;47.490;19.030;2022-07-06T04:58:32;7.68;;;4.55;;
67979;SDS011;54760;47.490;19.030;2022-07-06T05:00:57;6.00;;;4.05;;
67979;SDS011;54760;47.490;19.030;2022-07-06T05:03:23;5.87;;;4.50;;
67979;SDS011;54760;47.490;19.030;2022-07-06T05:05:49;5.75;;;4.18;;
67979;SDS011;54760;47.490;19.030;2022-07-06T05:08:14;7.32;;;3.92;;
67979;SDS011;54760;47.490;19.030;2022-07-06T05:10:40;6.10;;;4.70;;
67979;SDS011;54760;47.490;19.030;2022-07-06T05:13:05;5.97;;;4.00;;
67979;SDS011;54760;47.490;19.030;2022-07-06T05:15:31;5.50;;;4.50;;
67979;SDS011;54760;47.490;19.030;2022-07-06T05:17:56;6.55;;;4.30;;
67979;SDS011;54760;47.490;19.030;2022-07-06T05:20:21;9.90;;;4.60;;
67979;SDS011;54760;47.490;19.030;2022-07-06T05:22:47;6.50;;;4.40;;
67979;SDS011;54760;47.490;19.030;2022-07-06T05:25:12;6.12;;;4.35;;
67979;SDS011;54760;47.490;19.030;2022-07-06T05:27:38;6.20;;;4.47;;
67979;SDS011;54760;47.490;19.030;2022-07-06T05:30:03;4.32;;;3.92;;
67979;SDS011;54760;47.490;19.030;2022-07-06T05:32:29;5.70;;;4.30;;
67979;SDS011;54760;47.490;19.030;2022-07-06T05:34:54;7.12;;;4.12;;
67979;SDS011;54760;47.490;19.030;2022-07-06T05:37:20;6.78;;;4.40;;
67979;SDS011;54760;47.490;19.030;2022-07-06T05:39:45;7.57;;;4.47;;
67979;SDS011;54760;47.490;19.030;2022-07-06T05:42:12;6.37;;;4.30;;
67979;SDS011;54760;47.490;19.030;2022-07-06T05:44:37;9.93;;;5.55;;
67979;SDS011;54760;47.490;19.030;2022-07-06T05:47:03;4.30;;;3.90;;
67979;SDS011;54760;47.490;19.030;2022-07-06T05:49:50;8.73;;;4.22;;
67979;SDS011;54760;47.490;19.030;2022-07-06T05:52:34;6.32;;;4.20;;
67979;SDS011;54760;47.490;19.030;2022-07-06T05:55:00;7.20;;;3.90;;
67979;SDS011;54760;47.490;19.030;2022-07-06T05:57:25;4.57;;;3.85;;
67979;SDS011;54760;47.490;19.030;2022-07-06T05:59:51;5.05;;;3.97;;
67979;SDS011;54760;47.490;19.030;2022-07-06T06:02:17;5.78;;;4.22;;
67979;SDS011;54760;47.490;19.030;2022-07-06T06:04:42;5.15;;;3.95;;
67979;SDS011;54760;47.490;19.030;2022-07-06T06:07:08;4.65;;;4.20;;
67979;SDS011;54760;47.490;19.030;2022-07-06T06:09:33;4.40;;;4.00;;
67979;SDS011;54760;47.490;19.030;2022-07-06T06:11:58;6.50;;;4.20;;
67979;SDS011;54760;47.490;19.030;2022-07-06T06:14:24;6.78;;;4.18;;
67979;SDS011;54760;47.490;19.030;2022-07-06T06:16:49;7.82;;;4.40;;
67979;SDS011;54760;47.490;19.030;2022-07-06T06:19:15;6.78;;;4.00;;
67979;SDS011;54760;47.490;19.030;2022-07-06T06:21:40;6.62;;;4.40;;
67979;SDS011;54760;47.490;19.030;2022-07-06T06:24:06;7.35;;;4.25;;
67979;SDS011;54760;47.490;19.030;2022-07-06T06:26:32;7.82;;;4.60;;
67979;SDS011;54760;47.490;19.030;2022-07-06T06:28:57;8.55;;;3.87;;
67979;SDS011;54760;47.490;19.030;2022-07-06T06:31:23;4.28;;;3.85;;
67979;SDS011;54760;47.490;19.030;2022-07-06T06:33:48;6.95;;;4.00;;
67979;SDS011;54760;47.490;19.030;2022-07-06T06:36:14;5.70;;;4.32;;
67979;SDS011;54760;47.490;19.030;2022-07-06T06:38:39;6.70;;;4.15;;
67979;SDS011;54760;47.490;19.030;2022-07-06T06:41:05;5.40;;;3.72;;
67979;SDS011;54760;47.490;19.030;2022-07-06T06:43:30;5.60;;;4.00;;
67979;SDS011;54760;47.490;19.030;2022-07-06T06:45:56;10.73;;;3.85;;
67979;SDS011;54760;47.490;19.030;2022-07-06T06:48:22;6.05;;;4.25;;
67979;SDS011;54760;47.490;19.030;2022-07-06T06:50:47;7.47;;;4.65;;
67979;SDS011;54760;47.490;19.030;2022-07-06T06:53:12;9.57;;;4.62;;
67979;SDS011;54760;47.490;19.030;2022-07-06T06:55:38;5.00;;;3.92;;
67979;SDS011;54760;47.490;19.030;2022-07-06T06:58:03;5.87;;;4.28;;
67979;SDS011;54760;47.490;19.030;2022-07-06T07:00:29;6.22;;;4.30;;
67979;SDS011;54760;47.490;19.030;2022-07-06T07:02:54;4.55;;;4.15;;
67979;SDS011;54760;47.490;19.030;2022-07-06T07:05:20;9.23;;;4.40;;
67979;SDS011;54760;47.490;19.030;2022-07-06T07:07:45;15.52;;;4.50;;
67979;SDS011;54760;47.490;19.030;2022-07-06T07:10:11;5.40;;;4.22;;
67979;SDS011;54760;47.490;19.030;2022-07-06T07:12:45;4.85;;;4.00;;
67979;SDS011;54760;47.490;19.030;2022-07-06T07:15:12;9.77;;;4.95;;
67979;SDS011;54760;47.490;19.030;2022-07-06T07:17:38;5.80;;;4.62;;
67979;SDS011;54760;47.490;19.030;2022-07-06T07:20:05;6.07;;;4.32;;
67979;SDS011;54760;47.490;19.030;2022-07-06T07:22:31;7.28;;;4.75;;
67979;SDS011;54760;47.490;19.030;2022-07-06T07:24:56;5.40;;;4.07;;
67979;SDS011;54760;47.490;19.030;2022-07-06T07:27:23;6.72;;;4.40;;
67979;SDS011;54760;47.490;19.030;2022-07-06T07:29:49;4.82;;;4.15;;
67979;SDS011;54760;47.490;19.030;2022-07-06T07:32:15;12.37;;;4.15;;
67979;SDS011;54760;47.490;19.030;2022-07-06T07:34:41;7.87;;;4.30;;
67979;SDS011;54760;47.490;19.030;2022-07-06T07:37:06;7.30;;;4.15;;
67979;SDS011;54760;47.490;19.030;2022-07-06T07:39:32;4.35;;;3.72;;
67979;SDS011;54760;47.490;19.030;2022-07-06T07:41:57;5.05;;;4.10;;
67979;SDS011;54760;47.490;19.030;2022-07-06T07:44:23;4.93;;;3.67;;
67979;SDS011;54760;47.490;19.030;2022-07-06T07:46:50;6.10;;;3.80;;
67979;SDS011;54760;47.490;19.030;2022-07-06T07:49:17;3.90;;;3.42;;
67979;SDS011;54760;47.490;19.030;2022-07-06T07:51:42;6.93;;;3.60;;
67979;SDS011;54760;47.490;19.030;2022-07-06T07:54:08;5.30;;;3.95;;
67979;SDS011;54760;47.490;19.030;2022-07-06T07:56:33;4.37;;;3.45;;
67979;SDS011;54760;47.490;19.030;2022-07-06T07:58:59;6.22;;;3.58;;
67979;SDS011;54760;47.490;19.030;2022-07-06T08:01:24;4.45;;;3.60;;
67979;SDS011;54760;47.490;19.030;2022-07-06T08:03:50;4.43;;;3.50;;
67979;SDS011;54760;47.490;19.030;2022-07-06T08:06:15;4.62;;;3.42;;
67979;SDS011;54760;47.490;19.030;2022-07-06T08:08:41;4.30;;;3.30;;
67979;SDS011;54760;47.490;19.030;2022-07-06T08:11:06;6.55;;;3.58;;
67979;SDS011;54760;47.490;19.030;2022-07-06T08:13:32;5.55;;;3.30;;
67979;SDS011;54760;47.490;19.030;2022-07-06T08:15:58;6.00;;;3.40;;
67979;SDS011;54760;47.490;19.030;2022-07-06T08:18:25;3.47;;;3.15;;
67979;SDS011;54760;47.490;19.030;2022-07-06T08:20:50;4.57;;;3.05;;
67979;SDS011;54760;47.490;19.030;2022-07-06T08:23:15;5.95;;;3.40;;
67979;SDS011;54760;47.490;19.030;2022-07-06T08:25:41;5.05;;;3.20;;
67979;SDS011;54760;47.490;19.030;2022-07-06T08:28:06;7.60;;;3.40;;
67979;SDS011;54760;47.490;19.030;2022-07-06T08:30:32;3.87;;;2.75;;
67979;SDS011;54760;47.490;19.030;2022-07-06T08:33:00;5.60;;;3.30;;
67979;SDS011;54760;47.490;19.030;2022-07-06T08:35:26;5.70;;;3.22;;
67979;SDS011;54760;47.490;19.030;2022-07-06T08:37:52;3.97;;;3.05;;
67979;SDS011;54760;47.490;19.030;2022-07-06T08:40:17;5.62;;;3.35;;
67979;SDS011;54760;47.490;19.030;2022-07-06T08:42:42;4.68;;;3.53;;
67979;SDS011;54760;47.490;19.030;2022-07-06T08:45:10;5.93;;;3.45;;
67979;SDS011;54760;47.490;19.030;2022-07-06T08:47:36;6.20;;;3.40;;
67979;SDS011;54760;47.490;19.030;2022-07-06T08:50:03;5.53;;;3.05;;
67979;SDS011;54760;47.490;19.030;2022-07-06T08:52:29;5.70;;;3.08;;
67979;SDS011;54760;47.490;19.030;2022-07-06T08:54:55;4.43;;;3.25;;
67979;SDS011;54760;47.490;19.030;2022-07-06T08:57:20;6.45;;;3.50;;
67979;SDS011;54760;47.490;19.030;2022-07-06T08:59:46;5.32;;;3.80;;
67979;SDS011;54760;47.490;19.030;2022-07-06T09:02:12;6.28;;;3.70;;
67979;SDS011;54760;47.490;19.030;2022-07-06T09:04:38;7.15;;;3.37;;
67979;SDS011;54760;47.490;19.030;2022-07-06T09:07:07;4.37;;;2.95;;
67979;SDS011;54760;47.490;19.030;2022-07-06T09:09:33;7.18;;;3.30;;
67979;SDS011;54760;47.490;19.030;2022-07-06T09:12:01;4.80;;;3.25;;
67979;SDS011;54760;47.490;19.030;2022-07-06T09:14:27;3.60;;;3.15;;
67979;SDS011;54760;47.490;19.030;2022-07-06T09:17:04;5.35;;;3.37;;
67979;SDS011;54760;47.490;19.030;2022-07-06T09:19:31;5.75;;;3.62;;
67979;SDS011;54760;47.490;19.030;2022-07-06T09:21:57;4.90;;;3.67;;
67979;SDS011;54760;47.490;19.030;2022-07-06T09:24:23;9.32;;;3.92;;
67979;SDS011;54760;47.490;19.030;2022-07-06T09:26:51;4.37;;;3.45;;
67979;SDS011;54760;47.490;19.030;2022-07-06T09:29:30;7.70;;;3.20;;
67979;SDS011;54760;47.490;19.030;2022-07-06T09:32:00;3.83;;;3.35;;
67979;SDS011;54760;47.490;19.030;2022-07-06T09:34:41;6.65;;;3.58;;
67979;SDS011;54760;47.490;19.030;2022-07-06T09:37:08;6.75;;;3.65;;
67979;SDS011;54760;47.490;19.030;2022-07-06T09:39:34;4.32;;;3.10;;
67979;SDS011;54760;47.490;19.030;2022-07-06T09:42:00;3.70;;;3.25;;
67979;SDS011;54760;47.490;19.030;2022-07-06T09:44:33;7.53;;;3.42;;
67979;SDS011;54760;47.490;19.030;2022-07-06T09:47:06;4.90;;;3.30;;
67979;SDS011;54760;47.490;19.030;2022-07-06T09:49:33;5.45;;;4.90;;
67979;SDS011;54760;47.490;19.030;2022-07-06T09:52:03;4.18;;;3.70;;
67979;SDS011;54760;47.490;19.030;2022-07-06T09:54:30;6.85;;;3.30;;
67979;SDS011;54760;47.490;19.030;2022-07-06T09:56:58;4.50;;;3.25;;
67979;SDS011;54760;47.490;19.030;2022-07-06T09:59:27;4.62;;;3.30;;
67979;SDS011;54760;47.490;19.030;2022-07-06T10:01:55;8.15;;;3.20;;
67979;SDS011;54760;47.490;19.030;2022-07-06T10:04:22;5.22;;;3.45;;
67979;SDS011;54760;47.490;19.030;2022-07-06T10:06:49;8.68;;;3.65;;
67979;SDS011;54760;47.490;19.030;2022-07-06T10:09:15;7.47;;;3.30;;
67979;SDS011;54760;47.490;19.030;2022-07-06T10:11:50;4.87;;;3.12;;
67979;SDS011;54760;47.490;19.030;2022-07-06T10:14:26;6.55;;;3.50;;
67979;SDS011;54760;47.490;19.030;2022-07-06T10:16:55;3.58;;;3.10;;
67979;SDS011;54760;47.490;19.030;2022-07-06T10:19:22;4.35;;;3.40;;
67979;SDS011;54760;47.490;19.030;2022-07-06T10:21:48;4.00;;;3.65;;
67979;SDS011;54760;47.490;19.030;2022-07-06T10:24:16;4.15;;;3.60;;
67979;SDS011;54760;47.490;19.030;2022-07-06T10:26:43;7.10;;;2.92;;
67979;SDS011;54760;47.490;19.030;2022-07-06T10:29:10;3.45;;;3.15;;
67979;SDS011;54760;47.490;19.030;2022-07-06T10:31:37;7.32;;;3.20;;
67979;SDS011;54760;47.490;19.030;2022-07-06T10:34:06;5.10;;;3.12;;
67979;SDS011;54760;47.490;19.030;2022-07-06T10:36:41;10.05;;;3.00;;
67979;SDS011;54760;47.490;19.030;2022-07-06T10:39:07;5.93;;;3.35;;
67979;SDS011;54760;47.490;19.030;2022-07-06T10:44:20;6.28;;;2.60;;
67979;SDS011;54760;47.490;19.030;2022-07-06T10:49:18;3.92;;;2.90;;
67979;SDS011;54760;47.490;19.030;2022-07-06T10:51:43;3.55;;;3.25;;
67979;SDS011;54760;47.490;19.030;2022-07-06T10:54:09;3.28;;;2.97;;
67979;SDS011;54760;47.490;19.030;2022-07-06T10:56:38;5.47;;;3.05;;
67979;SDS011;54760;47.490;19.030;2022-07-06T10:59:08;5.12;;;2.90;;
67979;SDS011;54760;47.490;19.030;2022-07-06T11:01:41;4.07;;;2.92;;
67979;SDS011;54760;47.490;19.030;2022-07-06T11:04:42;4.30;;;3.00;;
67979;SDS011;54760;47.490;19.030;2022-07-06T11:07:18;4.87;;;2.97;;
67979;SDS011;54760;47.490;19.030;2022-07-06T11:10:06;4.00;;;3.00;;
67979;SDS011;54760;47.490;19.030;2022-07-06T11:12:30;3.28;;;2.90;;
67979;SDS011;54760;47.490;19.030;2022-07-06T11:14:56;5.90;;;2.80;;
67979;SDS011;54760;47.490;19.030;2022-07-06T11:17:22;4.93;;;3.05;;
67979;SDS011;54760;47.490;19.030;2022-07-06T11:19:49;7.40;;;3.30;;
67979;SDS011;54760;47.490;19.030;2022-07-06T11:22:16;7.22;;;3.20;;
67979;SDS011;54760;47.490;19.030;2022-07-06T11:24:44;4.62;;;3.00;;
67979;SDS011;54760;47.490;19.030;2022-07-06T11:27:10;6.90;;;3.47;;
67979;SDS011;54760;47.490;19.030;2022-07-06T11:29:35;10.77;;;3.12;;
67979;SDS011;54760;47.490;19.030;2022-07-06T11:32:04;4.35;;;2.92;;
67979;SDS011;54760;47.490;19.030;2022-07-06T11:34:34;4.32;;;3.12;;
67979;SDS011;54760;47.490;19.030;2022-07-06T11:37:02;4.37;;;3.55;;
67979;SDS011;54760;47.490;19.030;2022-07-06T11:39:38;5.28;;;3.70;;
67979;SDS011;54760;47.490;19.030;2022-07-06T11:42:05;7.40;;;3.35;;
67979;SDS011;54760;47.490;19.030;2022-07-06T11:44:32;5.47;;;3.42;;
67979;SDS011;54760;47.490;19.030;2022-07-06T11:46:58;4.40;;;3.45;;
67979;SDS011;54760;47.490;19.030;2022-07-06T11:49:26;6.18;;;3.20;;
67979;SDS011;54760;47.490;19.030;2022-07-06T11:51:51;3.47;;;3.08;;
67979;SDS011;54760;47.490;19.030;2022-07-06T11:54:18;4.45;;;3.30;;
67979;SDS011;54760;47.490;19.030;2022-07-06T11:56:45;5.32;;;3.25;;
67979;SDS011;54760;47.490;19.030;2022-07-06T11:59:12;6.45;;;3.80;;
67979;SDS011;54760;47.490;19.030;2022-07-06T12:01:40;6.05;;;2.90;;
67979;SDS011;54760;47.490;19.030;2022-07-06T12:04:09;3.55;;;2.75;;
67979;SDS011;54760;47.490;19.030;2022-07-06T12:06:34;5.37;;;3.00;;
67979;SDS011;54760;47.490;19.030;2022-07-06T12:09:00;4.22;;;3.37;;
67979;SDS011;54760;47.490;19.030;2022-07-06T12:11:34;5.25;;;3.20;;
67979;SDS011;54760;47.490;19.030;2022-07-06T12:14:14;4.90;;;3.08;;
67979;SDS011;54760;47.490;19.030;2022-07-06T12:16:44;4.85;;;2.95;;
67979;SDS011;54760;47.490;19.030;2022-07-06T12:19:11;7.15;;;3.00;;
67979;SDS011;54760;47.490;19.030;2022-07-06T12:24:09;3.62;;;3.30;;
67979;SDS011;54760;47.490;19.030;2022-07-06T12:26:39;5.30;;;3.92;;
67979;SDS011;54760;47.490;19.030;2022-07-06T12:29:05;4.62;;;3.37;;
67979;SDS011;54760;47.490;19.030;2022-07-06T12:31:38;4.82;;;3.97;;
67979;SDS011;54760;47.490;19.030;2022-07-06T12:34:11;6.78;;;3.83;;
67979;SDS011;54760;47.490;19.030;2022-07-06T12:36:46;7.95;;;3.47;;
67979;SDS011;54760;47.490;19.030;2022-07-06T12:39:28;5.55;;;3.55;;
67979;SDS011;54760;47.490;19.030;2022-07-06T12:41:54;8.38;;;3.47;;
67979;SDS011;54760;47.490;19.030;2022-07-06T12:44:24;7.82;;;2.90;;
67979;SDS011;54760;47.490;19.030;2022-07-06T12:47:00;6.12;;;2.70;;
67979;SDS011;54760;47.490;19.030;2022-07-06T12:49:34;4.45;;;2.72;;
67979;SDS011;54760;47.490;19.030;2022-07-06T12:59:37;4.70;;;2.60;;
67979;SDS011;54760;47.490;19.030;2022-07-06T13:02:05;4.47;;;2.70;;
67979;SDS011;54760;47.490;19.030;2022-07-06T13:04:33;3.83;;;2.47;;
67979;SDS011;54760;47.490;19.030;2022-07-06T13:07:00;3.17;;;2.50;;
67979;SDS011;54760;47.490;19.030;2022-07-06T13:09:26;5.30;;;2.30;;
67979;SDS011;54760;47.490;19.030;2022-07-06T13:11:53;4.35;;;2.58;;
67979;SDS011;54760;47.490;19.030;2022-07-06T13:14:18;4.93;;;2.42;;
67979;SDS011;54760;47.490;19.030;2022-07-06T13:16:44;3.83;;;3.28;;
67979;SDS011;54760;47.490;19.030;2022-07-06T13:19:11;4.05;;;2.72;;
67979;SDS011;54760;47.490;19.030;2022-07-06T13:21:36;4.28;;;2.60;;
67979;SDS011;54760;47.490;19.030;2022-07-06T13:24:02;4.68;;;3.03;;
67979;SDS011;54760;47.490;19.030;2022-07-06T13:26:28;2.90;;;2.60;;
67979;SDS011;54760;47.490;19.030;2022-07-06T13:28:57;3.05;;;2.30;;
67979;SDS011;54760;47.490;19.030;2022-07-06T13:31:24;3.15;;;2.30;;
67979;SDS011;54760;47.490;19.030;2022-07-06T13:33:49;3.55;;;2.30;;
67979;SDS011;54760;47.490;19.030;2022-07-06T13:36:15;5.80;;;2.62;;
67979;SDS011;54760;47.490;19.030;2022-07-06T13:38:40;8.73;;;2.90;;
67979;SDS011;54760;47.490;19.030;2022-07-06T13:41:06;7.35;;;2.67;;
67979;SDS011;54760;47.490;19.030;2022-07-06T13:43:31;5.50;;;2.40;;
67979;SDS011;54760;47.490;19.030;2022-07-06T13:46:02;5.60;;;2.72;;
67979;SDS011;54760;47.490;19.030;2022-07-06T13:48:31;3.35;;;2.30;;
67979;SDS011;54760;47.490;19.030;2022-07-06T13:50:57;3.42;;;2.45;;
67979;SDS011;54760;47.490;19.030;2022-07-06T13:53:23;2.92;;;2.28;;
67979;SDS011;54760;47.490;19.030;2022-07-06T13:55:49;5.00;;;2.30;;
67979;SDS011;54760;47.490;19.030;2022-07-06T13:58:15;5.30;;;2.78;;
67979;SDS011;54760;47.490;19.030;2022-07-06T14:00:41;3.50;;;2.40;;
67979;SDS011;54760;47.490;19.030;2022-07-06T14:03:06;5.28;;;2.37;;
67979;SDS011;54760;47.490;19.030;2022-07-06T14:05:33;4.22;;;2.60;;
67979;SDS011;54760;47.490;19.030;2022-07-06T14:07:59;5.12;;;2.33;;
67979;SDS011;54760;47.490;19.030;2022-07-06T14:10:24;3.85;;;2.53;;
67979;SDS011;54760;47.490;19.030;2022-07-06T14:12:50;5.32;;;2.67;;
67979;SDS011;54760;47.490;19.030;2022-07-06T14:15:15;5.62;;;2.42;;
67979;SDS011;54760;47.490;19.030;2022-07-06T14:17:40;5.78;;;2.17;;
67979;SDS011;54760;47.490;19.030;2022-07-06T14:20:06;5.35;;;3.53;;
67979;SDS011;54760;47.490;19.030;2022-07-06T14:22:32;3.08;;;1.80;;
67979;SDS011;54760;47.490;19.030;2022-07-06T14:24:57;5.30;;;2.10;;
67979;SDS011;54760;47.490;19.030;2022-07-06T14:27:23;5.55;;;2.30;;
67979;SDS011;54760;47.490;19.030;2022-07-06T14:29:49;3.58;;;2.30;;
67979;SDS011;54760;47.490;19.030;2022-07-06T14:32:14;3.75;;;2.30;;
67979;SDS011;54760;47.490;19.030;2022-07-06T14:34:40;3.80;;;2.65;;
67979;SDS011;54760;47.490;19.030;2022-07-06T14:37:05;2.67;;;2.20;;
67979;SDS011;54760;47.490;19.030;2022-07-06T14:39:31;7.47;;;2.30;;
67979;SDS011;54760;47.490;19.030;2022-07-06T14:41:56;3.50;;;2.60;;
67979;SDS011;54760;47.490;19.030;2022-07-06T14:44:22;3.05;;;1.80;;
67979;SDS011;54760;47.490;19.030;2022-07-06T14:46:47;2.75;;;1.73;;
67979;SDS011;54760;47.490;19.030;2022-07-06T14:49:13;4.18;;;1.70;;